PWSweather.com
Personal Weather Stations
Station Observations
REBOX73
Petalia At Mount Pantokrator, CorfuGR 49081

Petalia At Mount PantokratorCorfuGR 49081

Lat: 39.747915, Lon: 19.841466

Elevation: 2132

Station Type: ws1080

http://pantokratoras-kerkyra.meteoclub.gr/

High Low Average
Temperature 69.6°F20.9°C 59.4°F15.2°C 64.8°F18.2°C
Dew Point 59.1°F15.1°C 45.7°F7.6°C 52.3°F11.3°C
Winds 7.0 mph 11.3 kmh Calm Calm 3.0 mph SE4.8 kmh SE
Wind Gusts 19.0 mph30.6 kmh 1.0 mph1.6 kmh 9.0 mph14.5 kmh
Humidity 83% 52% 64%
Pressure 29.98 in1015.2 mb 29.83 in1010.2 mb -
Precipitation 0.00 in0.0 mm - -
Hour Temp Dew Point Humidity Winds Wind Gusts Pressure Precip Precip Rate Daily Precip Total
12:00 AM 66.2°F19.0°C 59.1°F15.1°C 78% 1.0 mph NE1.6 kmh NE 3.0 mph4.8 kmh 29.88 in1011.9 mb 0.00 in0.0 mm 0.00 in0.0 mm 0.00 in0.0 mm
12:15 AM 66.2°F19.0°C 58.0°F14.4°C 75% 1.0 mph NE1.6 kmh NE 4.0 mph6.4 kmh 29.87 in1011.5 mb 0.00 in0.0 mm 0.00 in0.0 mm 0.00 in0.0 mm
12:30 AM 66.6°F19.2°C 57.6°F14.2°C 73% 2.0 mph N3.2 kmh N 7.0 mph11.3 kmh 29.87 in1011.5 mb 0.00 in0.0 mm 0.00 in0.0 mm 0.00 in0.0 mm
12:45 AM 66.6°F19.2°C 56.9°F13.8°C 71% 1.0 mph NE1.6 kmh NE 5.0 mph8.0 kmh 29.86 in1011.2 mb 0.00 in0.0 mm 0.00 in0.0 mm 0.00 in0.0 mm
01:00 AM 66.2°F19.0°C 56.9°F13.8°C 72% 1.0 mph N1.6 kmh N 3.0 mph4.8 kmh 29.86 in1011.2 mb 0.00 in0.0 mm 0.00 in0.0 mm 0.00 in0.0 mm
01:15 AM 65.8°F18.8°C 56.2°F13.4°C 71% 1.0 mph ENE1.6 kmh ENE 6.0 mph9.7 kmh 29.86 in1011.2 mb 0.00 in0.0 mm 0.00 in0.0 mm 0.00 in0.0 mm
01:30 AM 65.7°F18.7°C 54.8°F12.7°C 68% 1.0 mph N1.6 kmh N 4.0 mph6.4 kmh 29.85 in1010.8 mb 0.00 in0.0 mm 0.00 in0.0 mm 0.00 in0.0 mm
01:45 AM 64.9°F18.3°C 54.9°F12.7°C 70% 1.0 mph N1.6 kmh N 4.0 mph6.4 kmh 29.85 in1010.8 mb 0.00 in0.0 mm 0.00 in0.0 mm 0.00 in0.0 mm
02:00 AM 65.3°F18.5°C 54.1°F12.3°C 67% 1.0 mph NW1.6 kmh NW 7.0 mph11.3 kmh 29.85 in1010.8 mb 0.00 in0.0 mm 0.00 in0.0 mm 0.00 in0.0 mm
02:15 AM 64.8°F18.2°C 54.7°F12.6°C 70% 1.0 mph NE1.6 kmh NE 6.0 mph9.7 kmh 29.84 in1010.5 mb 0.00 in0.0 mm 0.00 in0.0 mm 0.00 in0.0 mm
02:30 AM 63.9°F17.7°C 55.8°F13.2°C 75% 1.0 mph NE1.6 kmh NE 7.0 mph11.3 kmh 29.84 in1010.5 mb 0.00 in0.0 mm 0.00 in0.0 mm 0.00 in0.0 mm
02:45 AM 64.2°F17.9°C 53.8°F12.1°C 69% 4.0 mph N6.4 kmh N 13.0 mph20.9 kmh 29.84 in1010.5 mb 0.00 in0.0 mm 0.00 in0.0 mm 0.00 in0.0 mm
03:00 AM 63.9°F17.7°C 53.5°F11.9°C 69% 5.0 mph NNE8.0 kmh NNE 13.0 mph20.9 kmh 29.83 in1010.2 mb 0.00 in0.0 mm 0.00 in0.0 mm 0.00 in0.0 mm
03:15 AM 63.1°F17.3°C 53.6°F12.0°C 71% 6.0 mph NE9.7 kmh NE 14.0 mph22.5 kmh 29.83 in1010.2 mb 0.00 in0.0 mm 0.00 in0.0 mm 0.00 in0.0 mm
03:30 AM 62.2°F16.8°C 52.7°F11.5°C 71% 4.0 mph NNE6.4 kmh NNE 10.0 mph16.1 kmh 29.83 in1010.2 mb 0.00 in0.0 mm 0.00 in0.0 mm 0.00 in0.0 mm
03:45 AM 62.1°F16.7°C 51.4°F10.8°C 68% 4.0 mph NE6.4 kmh NE 11.0 mph17.7 kmh 29.83 in1010.2 mb 0.00 in0.0 mm 0.00 in0.0 mm 0.00 in0.0 mm
04:00 AM 61.3°F16.3°C 53.0°F11.7°C 74% 4.0 mph NE6.4 kmh NE 15.0 mph24.1 kmh 29.83 in1010.2 mb 0.00 in0.0 mm 0.00 in0.0 mm 0.00 in0.0 mm
04:15 AM 60.6°F15.9°C 53.7°F12.1°C 78% 5.0 mph NE8.0 kmh NE 15.0 mph24.1 kmh 29.83 in1010.2 mb 0.00 in0.0 mm 0.00 in0.0 mm 0.00 in0.0 mm
04:30 AM 60.3°F15.7°C 54.1°F12.3°C 80% 4.0 mph NE6.4 kmh NE 13.0 mph20.9 kmh 29.83 in1010.2 mb 0.00 in0.0 mm 0.00 in0.0 mm 0.00 in0.0 mm
04:45 AM 60.3°F15.7°C 55.1°F12.8°C 83% 4.0 mph NE6.4 kmh NE 11.0 mph17.7 kmh 29.83 in1010.2 mb 0.00 in0.0 mm 0.00 in0.0 mm 0.00 in0.0 mm
05:00 AM 59.9°F15.5°C 54.4°F12.4°C 82% 3.0 mph NNE4.8 kmh NNE 11.0 mph17.7 kmh 29.84 in1010.5 mb 0.00 in0.0 mm 0.00 in0.0 mm 0.00 in0.0 mm
05:30 AM 60.4°F15.8°C 53.9°F12.2°C 79% 4.0 mph NE6.4 kmh NE 12.0 mph19.3 kmh 29.84 in1010.5 mb 0.00 in0.0 mm 0.00 in0.0 mm 0.00 in0.0 mm
05:45 AM 59.7°F15.4°C 53.9°F12.2°C 81% 3.0 mph N4.8 kmh N 8.0 mph12.9 kmh 29.84 in1010.5 mb 0.00 in0.0 mm 0.00 in0.0 mm 0.00 in0.0 mm
06:00 AM 60.1°F15.6°C 53.5°F11.9°C 79% 3.0 mph N4.8 kmh N 13.0 mph20.9 kmh 29.83 in1010.2 mb 0.00 in0.0 mm 0.00 in0.0 mm 0.00 in0.0 mm
06:15 AM 60.6°F15.9°C 53.7°F12.1°C 78% 5.0 mph NE8.0 kmh NE 14.0 mph22.5 kmh 29.84 in1010.5 mb 0.00 in0.0 mm 0.00 in0.0 mm 0.00 in0.0 mm
06:30 AM 60.4°F15.8°C 54.6°F12.6°C 81% 2.0 mph NW3.2 kmh NW 5.0 mph8.0 kmh 29.84 in1010.5 mb 0.00 in0.0 mm 0.00 in0.0 mm 0.00 in0.0 mm
06:45 AM 62.2°F16.8°C 52.7°F11.5°C 71% 2.0 mph N3.2 kmh N 12.0 mph19.3 kmh 29.84 in1010.5 mb 0.00 in0.0 mm 0.00 in0.0 mm 0.00 in0.0 mm
07:00 AM 64.0°F17.8°C 53.3°F11.8°C 68% 4.0 mph NW6.4 kmh NW 13.0 mph20.9 kmh 29.84 in1010.5 mb 0.00 in0.0 mm 0.00 in0.0 mm 0.00 in0.0 mm
07:15 AM 64.6°F18.1°C 51.7°F10.9°C 63% 3.0 mph N4.8 kmh N 12.0 mph19.3 kmh 29.84 in1010.5 mb 0.00 in0.0 mm 0.00 in0.0 mm 0.00 in0.0 mm
07:30 AM 64.6°F18.1°C 50.8°F10.4°C 61% 4.0 mph NNE6.4 kmh NNE 13.0 mph20.9 kmh 29.85 in1010.8 mb 0.00 in0.0 mm 0.00 in0.0 mm 0.00 in0.0 mm
07:45 AM 64.6°F18.1°C 51.7°F10.9°C 63% 3.0 mph NNE4.8 kmh NNE 9.0 mph14.5 kmh 29.84 in1010.5 mb 0.00 in0.0 mm 0.00 in0.0 mm 0.00 in0.0 mm
08:00 AM 64.6°F18.1°C 52.5°F11.4°C 65% 4.0 mph NNE6.4 kmh NNE 11.0 mph17.7 kmh 29.84 in1010.5 mb 0.00 in0.0 mm 0.00 in0.0 mm 0.00 in0.0 mm
08:15 AM 65.5°F18.6°C 52.5°F11.4°C 63% 2.0 mph NNE3.2 kmh NNE 9.0 mph14.5 kmh 29.84 in1010.5 mb 0.00 in0.0 mm 0.00 in0.0 mm 0.00 in0.0 mm
08:30 AM 65.1°F18.4°C 53.5°F11.9°C 66% 4.0 mph NE6.4 kmh NE 12.0 mph19.3 kmh 29.84 in1010.5 mb 0.00 in0.0 mm 0.00 in0.0 mm 0.00 in0.0 mm
08:45 AM 66.2°F19.0°C 54.9°F12.7°C 67% 4.0 mph N6.4 kmh N 12.0 mph19.3 kmh 29.85 in1010.8 mb 0.00 in0.0 mm 0.00 in0.0 mm 0.00 in0.0 mm
09:00 AM 66.4°F19.1°C 55.5°F13.1°C 68% 3.0 mph NNW4.8 kmh NNW 8.0 mph12.9 kmh 29.86 in1011.2 mb 0.00 in0.0 mm 0.00 in0.0 mm 0.00 in0.0 mm
09:15 AM 66.4°F19.1°C 55.1°F12.8°C 67% 3.0 mph NW4.8 kmh NW 9.0 mph14.5 kmh 29.85 in1010.8 mb 0.00 in0.0 mm 0.00 in0.0 mm 0.00 in0.0 mm
09:30 AM 67.8°F19.9°C 56.0°F13.3°C 66% 2.0 mph NNW3.2 kmh NNW 10.0 mph16.1 kmh 29.86 in1011.2 mb 0.00 in0.0 mm 0.00 in0.0 mm 0.00 in0.0 mm
09:45 AM 67.1°F19.5°C 53.2°F11.8°C 61% 4.0 mph NW6.4 kmh NW 12.0 mph19.3 kmh 29.86 in1011.2 mb 0.00 in0.0 mm 0.00 in0.0 mm 0.00 in0.0 mm
10:00 AM 67.3°F19.6°C 52.0°F11.1°C 58% 4.0 mph NW6.4 kmh NW 9.0 mph14.5 kmh 29.87 in1011.5 mb 0.00 in0.0 mm 0.00 in0.0 mm 0.00 in0.0 mm
10:15 AM 67.5°F19.7°C 50.2°F10.1°C 54% 4.0 mph NW6.4 kmh NW 9.0 mph14.5 kmh 29.87 in1011.5 mb 0.00 in0.0 mm 0.00 in0.0 mm 0.00 in0.0 mm
10:30 AM 68.2°F20.1°C 50.9°F10.5°C 54% 3.0 mph NNW4.8 kmh NNW 12.0 mph19.3 kmh 29.87 in1011.5 mb 0.00 in0.0 mm 0.00 in0.0 mm 0.00 in0.0 mm
10:45 AM 67.6°F19.8°C 51.4°F10.8°C 56% 5.0 mph NNE8.0 kmh NNE 12.0 mph19.3 kmh 29.87 in1011.5 mb 0.00 in0.0 mm 0.00 in0.0 mm 0.00 in0.0 mm
11:00 AM 67.8°F19.9°C 51.5°F10.8°C 56% 4.0 mph N6.4 kmh N 12.0 mph19.3 kmh 29.88 in1011.9 mb 0.00 in0.0 mm 0.00 in0.0 mm 0.00 in0.0 mm
11:15 AM 68.5°F20.3°C 51.2°F10.7°C 54% 4.0 mph N6.4 kmh N 11.0 mph17.7 kmh 29.87 in1011.5 mb 0.00 in0.0 mm 0.00 in0.0 mm 0.00 in0.0 mm
11:30 AM 68.5°F20.3°C 51.2°F10.7°C 54% 5.0 mph NE8.0 kmh NE 11.0 mph17.7 kmh 29.87 in1011.5 mb 0.00 in0.0 mm 0.00 in0.0 mm 0.00 in0.0 mm
11:45 AM 68.2°F20.1°C 49.9°F9.9°C 52% 6.0 mph NE9.7 kmh NE 13.0 mph20.9 kmh 29.87 in1011.5 mb 0.00 in0.0 mm 0.00 in0.0 mm 0.00 in0.0 mm
12:00 PM 68.4°F20.2°C 50.6°F10.3°C 53% 4.0 mph N6.4 kmh N 14.0 mph22.5 kmh 29.87 in1011.5 mb 0.00 in0.0 mm 0.00 in0.0 mm 0.00 in0.0 mm
12:15 PM 68.5°F20.3°C 52.2°F11.2°C 56% 4.0 mph N6.4 kmh N 12.0 mph19.3 kmh 29.88 in1011.9 mb 0.00 in0.0 mm 0.00 in0.0 mm 0.00 in0.0 mm
12:30 PM 68.5°F20.3°C 52.2°F11.2°C 56% 4.0 mph W6.4 kmh W 12.0 mph19.3 kmh 29.88 in1011.9 mb 0.00 in0.0 mm 0.00 in0.0 mm 0.00 in0.0 mm
12:45 PM 68.7°F20.4°C 52.4°F11.3°C 56% 4.0 mph W6.4 kmh W 9.0 mph14.5 kmh 29.88 in1011.9 mb 0.00 in0.0 mm 0.00 in0.0 mm 0.00 in0.0 mm
01:00 PM 68.5°F20.3°C 52.2°F11.2°C 56% 4.0 mph W6.4 kmh W 12.0 mph19.3 kmh 29.88 in1011.9 mb 0.00 in0.0 mm 0.00 in0.0 mm 0.00 in0.0 mm
01:15 PM 69.3°F20.7°C 51.4°F10.8°C 53% 3.0 mph NNE4.8 kmh NNE 10.0 mph16.1 kmh 29.88 in1011.9 mb 0.00 in0.0 mm 0.00 in0.0 mm 0.00 in0.0 mm
01:30 PM 69.4°F20.8°C 52.6°F11.4°C 55% 3.0 mph NW4.8 kmh NW 13.0 mph20.9 kmh 29.88 in1011.9 mb 0.00 in0.0 mm 0.00 in0.0 mm 0.00 in0.0 mm
01:45 PM 69.4°F20.8°C 52.6°F11.4°C 55% 3.0 mph W4.8 kmh W 11.0 mph17.7 kmh 29.89 in1012.2 mb 0.00 in0.0 mm 0.00 in0.0 mm 0.00 in0.0 mm
02:00 PM 69.6°F20.9°C 53.2°F11.8°C 56% 2.0 mph NW3.2 kmh NW 9.0 mph14.5 kmh 29.89 in1012.2 mb 0.00 in0.0 mm 0.00 in0.0 mm 0.00 in0.0 mm
02:15 PM 68.5°F20.3°C 51.7°F10.9°C 55% 4.0 mph NE6.4 kmh NE 15.0 mph24.1 kmh 29.89 in1012.2 mb 0.00 in0.0 mm 0.00 in0.0 mm 0.00 in0.0 mm
02:30 PM 68.5°F20.3°C 51.7°F10.9°C 55% 5.0 mph NE8.0 kmh NE 13.0 mph20.9 kmh 29.89 in1012.2 mb 0.00 in0.0 mm 0.00 in0.0 mm 0.00 in0.0 mm
02:45 PM 68.4°F20.2°C 51.6°F10.9°C 55% 4.0 mph NNE6.4 kmh NNE 11.0 mph17.7 kmh 29.90 in1012.5 mb 0.00 in0.0 mm 0.00 in0.0 mm 0.00 in0.0 mm
03:00 PM 68.5°F20.3°C 51.2°F10.7°C 54% 5.0 mph NNE8.0 kmh NNE 13.0 mph20.9 kmh 29.90 in1012.5 mb 0.00 in0.0 mm 0.00 in0.0 mm 0.00 in0.0 mm
03:15 PM 67.6°F19.8°C 50.4°F10.2°C 54% 7.0 mph NE11.3 kmh NE 19.0 mph30.6 kmh 29.90 in1012.5 mb 0.00 in0.0 mm 0.00 in0.0 mm 0.00 in0.0 mm
03:30 PM 68.2°F20.1°C 51.9°F11.1°C 56% 4.0 mph NE6.4 kmh NE 15.0 mph24.1 kmh 29.90 in1012.5 mb 0.00 in0.0 mm 0.00 in0.0 mm 0.00 in0.0 mm
03:45 PM 67.6°F19.8°C 52.3°F11.3°C 58% 5.0 mph NNE8.0 kmh NNE 15.0 mph24.1 kmh 29.90 in1012.5 mb 0.00 in0.0 mm 0.00 in0.0 mm 0.00 in0.0 mm
04:00 PM 67.8°F19.9°C 52.0°F11.1°C 57% 3.0 mph NE4.8 kmh NE 12.0 mph19.3 kmh 29.90 in1012.5 mb 0.00 in0.0 mm 0.00 in0.0 mm 0.00 in0.0 mm
04:15 PM 66.9°F19.4°C 52.1°F11.2°C 59% 5.0 mph NE8.0 kmh NE 15.0 mph24.1 kmh 29.90 in1012.5 mb 0.00 in0.0 mm 0.00 in0.0 mm 0.00 in0.0 mm
04:30 PM 66.7°F19.3°C 52.4°F11.3°C 60% 4.0 mph NNE6.4 kmh NNE 12.0 mph19.3 kmh 29.90 in1012.5 mb 0.00 in0.0 mm 0.00 in0.0 mm 0.00 in0.0 mm
04:45 PM 66.9°F19.4°C 53.0°F11.7°C 61% 4.0 mph N6.4 kmh N 10.0 mph16.1 kmh 29.90 in1012.5 mb 0.00 in0.0 mm 0.00 in0.0 mm 0.00 in0.0 mm
05:00 PM 67.6°F19.8°C 53.7°F12.1°C 61% 2.0 mph NNW3.2 kmh NNW 7.0 mph11.3 kmh 29.90 in1012.5 mb 0.00 in0.0 mm 0.00 in0.0 mm 0.00 in0.0 mm
05:15 PM 66.9°F19.4°C 52.6°F11.4°C 60% 4.0 mph NNE6.4 kmh NNE 11.0 mph17.7 kmh 29.91 in1012.9 mb 0.00 in0.0 mm 0.00 in0.0 mm 0.00 in0.0 mm
05:30 PM 67.3°F19.6°C 51.0°F10.6°C 56% 5.0 mph ENE8.0 kmh ENE 13.0 mph20.9 kmh 29.91 in1012.9 mb 0.00 in0.0 mm 0.00 in0.0 mm 0.00 in0.0 mm
05:45 PM 67.8°F19.9°C 51.1°F10.6°C 55% 3.0 mph ENE4.8 kmh ENE 8.0 mph12.9 kmh 29.91 in1012.9 mb 0.00 in0.0 mm 0.00 in0.0 mm 0.00 in0.0 mm
06:00 PM 68.4°F20.2°C 53.0°F11.7°C 58% 2.0 mph W3.2 kmh W 13.0 mph20.9 kmh 29.92 in1013.2 mb 0.00 in0.0 mm 0.00 in0.0 mm 0.00 in0.0 mm
06:15 PM 66.2°F19.0°C 53.2°F11.8°C 63% 2.0 mph W3.2 kmh W 9.0 mph14.5 kmh 29.93 in1013.5 mb 0.00 in0.0 mm 0.00 in0.0 mm 0.00 in0.0 mm
06:30 PM 63.3°F17.4°C 53.0°F11.7°C 69% 2.0 mph NW3.2 kmh NW 5.0 mph8.0 kmh 29.93 in1013.5 mb 0.00 in0.0 mm 0.00 in0.0 mm 0.00 in0.0 mm
06:45 PM 62.2°F16.8°C 52.3°F11.3°C 70% 2.0 mph NNE3.2 kmh NNE 6.0 mph9.7 kmh 29.93 in1013.5 mb 0.00 in0.0 mm 0.00 in0.0 mm 0.00 in0.0 mm
07:00 PM 61.5°F16.4°C 52.0°F11.1°C 71% Calm Calm 1.0 mph1.6 kmh 29.94 in1013.9 mb 0.00 in0.0 mm 0.00 in0.0 mm 0.00 in0.0 mm
07:15 PM 60.4°F15.8°C 52.1°F11.2°C 74% Calm Calm 1.0 mph1.6 kmh 29.94 in1013.9 mb 0.00 in0.0 mm 0.00 in0.0 mm 0.00 in0.0 mm
07:30 PM 60.3°F15.7°C 51.9°F11.1°C 74% Calm Calm 3.0 mph4.8 kmh 29.94 in1013.9 mb 0.00 in0.0 mm 0.00 in0.0 mm 0.00 in0.0 mm
07:45 PM 59.4°F15.2°C 51.8°F11.0°C 76% Calm Calm 2.0 mph3.2 kmh 29.95 in1014.2 mb 0.00 in0.0 mm 0.00 in0.0 mm 0.00 in0.0 mm
08:00 PM 61.3°F16.3°C 49.9°F9.9°C 66% 2.0 mph NNE3.2 kmh NNE 11.0 mph17.7 kmh 29.95 in1014.2 mb 0.00 in0.0 mm 0.00 in0.0 mm 0.00 in0.0 mm
08:15 PM 62.2°F16.8°C 49.5°F9.7°C 63% 2.0 mph N3.2 kmh N 9.0 mph14.5 kmh 29.96 in1014.6 mb 0.00 in0.0 mm 0.00 in0.0 mm 0.00 in0.0 mm
08:30 PM 62.4°F16.9°C 50.1°F10.1°C 64% 2.0 mph NNE3.2 kmh NNE 9.0 mph14.5 kmh 29.96 in1014.6 mb 0.00 in0.0 mm 0.00 in0.0 mm 0.00 in0.0 mm
08:45 PM 62.2°F16.8°C 49.5°F9.7°C 63% 1.0 mph N1.6 kmh N 5.0 mph8.0 kmh 29.97 in1014.9 mb 0.00 in0.0 mm 0.00 in0.0 mm 0.00 in0.0 mm
09:00 PM 61.0°F16.1°C 49.9°F9.9°C 67% Calm Calm 2.0 mph3.2 kmh 29.97 in1014.9 mb 0.00 in0.0 mm 0.00 in0.0 mm 0.00 in0.0 mm
09:15 PM 61.2°F16.2°C 48.9°F9.4°C 64% 1.0 mph N1.6 kmh N 6.0 mph9.7 kmh 29.97 in1014.9 mb 0.00 in0.0 mm 0.00 in0.0 mm 0.00 in0.0 mm
09:30 PM 62.8°F17.1°C 48.7°F9.3°C 60% 3.0 mph NW4.8 kmh NW 12.0 mph19.3 kmh 29.96 in1014.6 mb 0.00 in0.0 mm 0.00 in0.0 mm 0.00 in0.0 mm
09:45 PM 63.0°F17.2°C 48.9°F9.4°C 60% 2.0 mph SW3.2 kmh SW 7.0 mph11.3 kmh 29.96 in1014.6 mb 0.00 in0.0 mm 0.00 in0.0 mm 0.00 in0.0 mm
10:00 PM 62.4°F16.9°C 48.3°F9.1°C 60% 2.0 mph SSE3.2 kmh SSE 5.0 mph8.0 kmh 29.96 in1014.6 mb 0.00 in0.0 mm 0.00 in0.0 mm 0.00 in0.0 mm
10:15 PM 62.4°F16.9°C 47.4°F8.6°C 58% 1.0 mph SW1.6 kmh SW 3.0 mph4.8 kmh 29.97 in1014.9 mb 0.00 in0.0 mm 0.00 in0.0 mm 0.00 in0.0 mm
10:30 PM 60.6°F15.9°C 47.9°F8.8°C 63% Calm Calm 1.0 mph1.6 kmh 29.98 in1015.2 mb 0.00 in0.0 mm 0.00 in0.0 mm 0.00 in0.0 mm
10:45 PM 59.5°F15.3°C 47.3°F8.5°C 64% Calm Calm 1.0 mph1.6 kmh 29.98 in1015.2 mb 0.00 in0.0 mm 0.00 in0.0 mm 0.00 in0.0 mm
11:00 PM 60.6°F15.9°C 47.5°F8.6°C 62% Calm Calm 2.0 mph3.2 kmh 29.98 in1015.2 mb 0.00 in0.0 mm 0.00 in0.0 mm 0.00 in0.0 mm
11:15 PM 61.0°F16.1°C 47.9°F8.8°C 62% Calm Calm 2.0 mph3.2 kmh 29.97 in1014.9 mb 0.00 in0.0 mm 0.00 in0.0 mm 0.00 in0.0 mm
11:30 PM 61.2°F16.2°C 47.2°F8.4°C 60% 1.0 mph ESE1.6 kmh ESE 3.0 mph4.8 kmh 29.97 in1014.9 mb 0.00 in0.0 mm 0.00 in0.0 mm 0.00 in0.0 mm
11:45 PM 61.5°F16.4°C 45.7°F7.6°C 56% 1.0 mph SW1.6 kmh SW 3.0 mph4.8 kmh 29.96 in1014.6 mb 0.00 in0.0 mm 0.00 in0.0 mm 0.00 in0.0 mm